sensor_id;sensor_type;location;lat;lon;timestamp;pressure;altitude;pressure_sealevel;temperature;humidity
39267;BME280;24967;51.154;13.812;2023-03-13T00:00:25;98755.94;;;8.66;81.56
39267;BME280;24967;51.154;13.812;2023-03-13T00:02:52;98753.28;;;8.66;81.13
39267;BME280;24967;51.154;13.812;2023-03-13T00:05:18;98757.13;;;8.72;80.96
39267;BME280;24967;51.154;13.812;2023-03-13T00:07:45;98751.31;;;8.68;80.98
39267;BME280;24967;51.154;13.812;2023-03-13T00:10:11;98754.66;;;8.79;81.55
39267;BME280;24967;51.154;13.812;2023-03-13T00:12:39;98754.66;;;8.79;81.36
39267;BME280;24967;51.154;13.812;2023-03-13T00:15:07;98748.53;;;8.78;81.14
39267;BME280;24967;51.154;13.812;2023-03-13T00:17:33;98746.84;;;8.77;81.24
39267;BME280;24967;51.154;13.812;2023-03-13T00:20:00;98752.72;;;8.89;80.80
39267;BME280;24967;51.154;13.812;2023-03-13T00:22:26;98753.06;;;8.94;80.91
39267;BME280;24967;51.154;13.812;2023-03-13T00:24:53;98751.66;;;9.08;79.92
39267;BME280;24967;51.154;13.812;2023-03-13T00:27:21;98755.13;;;9.16;79.76
39267;BME280;24967;51.154;13.812;2023-03-13T00:29:49;98761.72;;;9.04;79.82
39267;BME280;24967;51.154;13.812;2023-03-13T00:32:15;98752.81;;;9.13;79.44
39267;BME280;24967;51.154;13.812;2023-03-13T00:34:42;98755.31;;;9.15;79.54
39267;BME280;24967;51.154;13.812;2023-03-13T00:37:08;98754.22;;;9.34;78.89
39267;BME280;24967;51.154;13.812;2023-03-13T00:39:35;98751.41;;;9.35;78.08
39267;BME280;24967;51.154;13.812;2023-03-13T00:42:01;98758.97;;;9.22;78.84
39267;BME280;24967;51.154;13.812;2023-03-13T00:44:29;98761.94;;;9.19;78.55
39267;BME280;24967;51.154;13.812;2023-03-13T00:46:56;98749.03;;;9.24;78.02
39267;BME280;24967;51.154;13.812;2023-03-13T00:49:23;98761.47;;;9.32;78.10
39267;BME280;24967;51.154;13.812;2023-03-13T00:51:50;98750.56;;;9.43;77.58
39267;BME280;24967;51.154;13.812;2023-03-13T00:54:16;98750.56;;;9.43;77.89
39267;BME280;24967;51.154;13.812;2023-03-13T00:56:43;98739.81;;;9.45;77.35
39267;BME280;24967;51.154;13.812;2023-03-13T00:59:09;98747.06;;;9.34;77.65
39267;BME280;24967;51.154;13.812;2023-03-13T01:01:36;98745.06;;;9.20;78.17
39267;BME280;24967;51.154;13.812;2023-03-13T01:04:06;98737.28;;;9.27;77.79
39267;BME280;24967;51.154;13.812;2023-03-13T01:06:34;98750.38;;;9.20;77.68
39267;BME280;24967;51.154;13.812;2023-03-13T01:09:03;98746.72;;;9.21;77.81
39267;BME280;24967;51.154;13.812;2023-03-13T01:11:32;98738.94;;;9.28;77.04
39267;BME280;24967;51.154;13.812;2023-03-13T01:14:02;98729.16;;;9.20;77.32
39267;BME280;24967;51.154;13.812;2023-03-13T01:16:31;98725.97;;;9.16;77.80
39267;BME280;24967;51.154;13.812;2023-03-13T01:19:00;98730.16;;;9.27;77.01
39267;BME280;24967;51.154;13.812;2023-03-13T01:21:29;98729.66;;;9.24;77.11
39267;BME280;24967;51.154;13.812;2023-03-13T01:23:58;98729.34;;;9.27;76.70
39267;BME280;24967;51.154;13.812;2023-03-13T01:26:26;98726.03;;;9.33;76.42
39267;BME280;24967;51.154;13.812;2023-03-13T01:28:54;98724.38;;;9.40;75.93
39267;BME280;24967;51.154;13.812;2023-03-13T01:31:23;98722.56;;;9.40;75.55
39267;BME280;24967;51.154;13.812;2023-03-13T01:33:53;98715.75;;;9.46;75.44
39267;BME280;24967;51.154;13.812;2023-03-13T01:36:22;98711.63;;;9.52;75.27
39267;BME280;24967;51.154;13.812;2023-03-13T01:38:54;98714.47;;;9.58;74.68
39267;BME280;24967;51.154;13.812;2023-03-13T01:41:22;98705.97;;;9.47;74.93
39267;BME280;24967;51.154;13.812;2023-03-13T01:43:49;98714.59;;;9.40;75.15
39267;BME280;24967;51.154;13.812;2023-03-13T01:46:17;98707.81;;;9.54;74.93
39267;BME280;24967;51.154;13.812;2023-03-13T01:48:47;98714.59;;;9.32;75.07
39267;BME280;24967;51.154;13.812;2023-03-13T01:51:18;98710.47;;;9.38;75.19
39267;BME280;24967;51.154;13.812;2023-03-13T01:53:49;98707.81;;;9.38;74.79
39267;BME280;24967;51.154;13.812;2023-03-13T01:56:21;98703.81;;;9.34;74.83
39267;BME280;24967;51.154;13.812;2023-03-13T01:58:52;98688.41;;;9.29;74.71
39267;BME280;24967;51.154;13.812;2023-03-13T02:01:22;98694.34;;;9.31;74.80
39267;BME280;24967;51.154;13.812;2023-03-13T02:03:51;98694.03;;;9.34;74.52
39267;BME280;24967;51.154;13.812;2023-03-13T02:06:19;98689.06;;;9.23;74.60
39267;BME280;24967;51.154;13.812;2023-03-13T02:08:49;98689.03;;;9.15;74.89
39267;BME280;24967;51.154;13.812;2023-03-13T02:11:28;98680.44;;;9.29;74.37
39267;BME280;24967;51.154;13.812;2023-03-13T02:13:57;98684.06;;;9.20;74.78
39267;BME280;24967;51.154;13.812;2023-03-13T02:16:24;98680.09;;;9.24;74.25
39267;BME280;24967;51.154;13.812;2023-03-13T02:18:51;98678.13;;;9.26;74.16
39267;BME280;24967;51.154;13.812;2023-03-13T02:21:28;98667.97;;;9.22;74.38
39267;BME280;24967;51.154;13.812;2023-03-13T02:24:03;98668.50;;;9.33;73.73
39267;BME280;24967;51.154;13.812;2023-03-13T02:26:34;98666.66;;;9.26;73.57
39267;BME280;24967;51.154;13.812;2023-03-13T02:29:00;98661.84;;;9.21;73.92
39267;BME280;24967;51.154;13.812;2023-03-13T02:31:30;98663.19;;;9.25;73.52
39267;BME280;24967;51.154;13.812;2023-03-13T02:33:58;98656.91;;;9.43;73.22
39267;BME280;24967;51.154;13.812;2023-03-13T02:36:26;98653.44;;;9.42;73.16
39267;BME280;24967;51.154;13.812;2023-03-13T02:38:56;98664.38;;;9.47;73.08
39267;BME280;24967;51.154;13.812;2023-03-13T02:41:24;98658.53;;;9.19;73.81
39267;BME280;24967;51.154;13.812;2023-03-13T02:43:53;98651.72;;;9.16;74.08
39267;BME280;24967;51.154;13.812;2023-03-13T02:46:20;98654.03;;;9.03;75.15
39267;BME280;24967;51.154;13.812;2023-03-13T02:48:48;98649.91;;;9.09;74.81
39267;BME280;24967;51.154;13.812;2023-03-13T02:51:18;98650.56;;;9.19;74.93
39267;BME280;24967;51.154;13.812;2023-03-13T02:53:47;98649.06;;;9.16;74.78
39267;BME280;24967;51.154;13.812;2023-03-13T02:56:16;98661.34;;;9.26;75.19
39267;BME280;24967;51.154;13.812;2023-03-13T02:58:44;98653.25;;;9.35;73.98
39267;BME280;24967;51.154;13.812;2023-03-13T03:01:13;98654.41;;;9.33;74.58
39267;BME280;24967;51.154;13.812;2023-03-13T03:03:39;98642.31;;;9.38;74.22
39267;BME280;24967;51.154;13.812;2023-03-13T03:06:07;98661.38;;;9.58;73.34
39267;BME280;24967;51.154;13.812;2023-03-13T03:08:34;98651.44;;;9.52;73.53
39267;BME280;24967;51.154;13.812;2023-03-13T03:11:01;98645.63;;;9.49;73.13
39267;BME280;24967;51.154;13.812;2023-03-13T03:13:27;98655.59;;;9.38;73.88
39267;BME280;24967;51.154;13.812;2023-03-13T03:15:54;98646.94;;;9.53;73.29
39267;BME280;24967;51.154;13.812;2023-03-13T03:18:21;98647.63;;;9.47;73.76
39267;BME280;24967;51.154;13.812;2023-03-13T03:20:48;98643.97;;;9.31;73.90
39267;BME280;24967;51.154;13.812;2023-03-13T03:23:14;98636.34;;;9.45;73.69
39267;BME280;24967;51.154;13.812;2023-03-13T03:25:41;98637.50;;;9.42;73.36
39267;BME280;24967;51.154;13.812;2023-03-13T03:28:09;98629.03;;;9.47;73.40
39267;BME280;24967;51.154;13.812;2023-03-13T03:30:38;98626.38;;;9.71;72.38
39267;BME280;24967;51.154;13.812;2023-03-13T03:33:04;98621.09;;;9.55;73.06
39267;BME280;24967;51.154;13.812;2023-03-13T03:35:32;98620.91;;;9.73;72.87
39267;BME280;24967;51.154;13.812;2023-03-13T03:38:02;98611.13;;;9.65;72.50
39267;BME280;24967;51.154;13.812;2023-03-13T03:40:28;98607.50;;;9.66;72.15
39267;BME280;24967;51.154;13.812;2023-03-13T03:42:55;98593.06;;;9.52;73.09
39267;BME280;24967;51.154;13.812;2023-03-13T03:45:21;98591.41;;;9.43;73.23
39267;BME280;24967;51.154;13.812;2023-03-13T03:47:48;98595.06;;;9.50;73.01
39267;BME280;24967;51.154;13.812;2023-03-13T03:50:14;98586.94;;;9.44;73.69
39267;BME280;24967;51.154;13.812;2023-03-13T03:52:42;98576.00;;;9.63;72.84
39267;BME280;24967;51.154;13.812;2023-03-13T03:55:09;98580.63;;;9.53;72.63
39267;BME280;24967;51.154;13.812;2023-03-13T03:57:35;98576.50;;;9.50;73.42
39267;BME280;24967;51.154;13.812;2023-03-13T04:00:02;98577.47;;;9.57;72.71
39267;BME280;24967;51.154;13.812;2023-03-13T04:02:31;98575.66;;;9.50;72.90
39267;BME280;24967;51.154;13.812;2023-03-13T04:04:58;98568.53;;;9.34;73.78
39267;BME280;24967;51.154;13.812;2023-03-13T04:07:24;98557.59;;;9.21;74.59
39267;BME280;24967;51.154;13.812;2023-03-13T04:09:52;98558.09;;;9.40;73.54
39267;BME280;24967;51.154;13.812;2023-03-13T04:12:19;98558.59;;;9.44;73.42
39267;BME280;24967;51.154;13.812;2023-03-13T04:14:45;98553.63;;;9.41;73.47
39267;BME280;24967;51.154;13.812;2023-03-13T04:17:12;98539.19;;;9.52;73.19
39267;BME280;24967;51.154;13.812;2023-03-13T04:19:39;98542.00;;;9.50;73.14
39267;BME280;24967;51.154;13.812;2023-03-13T04:22:05;98536.84;;;9.57;73.14
39267;BME280;24967;51.154;13.812;2023-03-13T04:24:32;98544.63;;;9.67;72.40
39267;BME280;24967;51.154;13.812;2023-03-13T04:27:00;98534.16;;;9.73;72.06
39267;BME280;24967;51.154;13.812;2023-03-13T04:29:27;98530.00;;;9.71;71.65
39267;BME280;24967;51.154;13.812;2023-03-13T04:31:54;98528.56;;;9.60;72.67
39267;BME280;24967;51.154;13.812;2023-03-13T04:34:21;98525.38;;;9.73;72.14
39267;BME280;24967;51.154;13.812;2023-03-13T04:36:48;98518.56;;;9.70;72.05
39267;BME280;24967;51.154;13.812;2023-03-13T04:39:14;98510.63;;;9.62;72.43
39267;BME280;24967;51.154;13.812;2023-03-13T04:41:41;98508.84;;;9.54;72.92
39267;BME280;24967;51.154;13.812;2023-03-13T04:44:09;98506.53;;;9.51;73.00
39267;BME280;24967;51.154;13.812;2023-03-13T04:46:35;98496.59;;;9.29;73.49
39267;BME280;24967;51.154;13.812;2023-03-13T04:49:02;98498.56;;;9.43;73.70
39267;BME280;24967;51.154;13.812;2023-03-13T04:51:28;98494.13;;;9.35;74.25
39267;BME280;24967;51.154;13.812;2023-03-13T04:53:54;98479.22;;;9.18;75.20
39267;BME280;24967;51.154;13.812;2023-03-13T04:56:23;98477.06;;;9.30;74.49
39267;BME280;24967;51.154;13.812;2023-03-13T04:58:49;98474.53;;;9.36;74.70
39267;BME280;24967;51.154;13.812;2023-03-13T05:01:17;98469.44;;;9.35;74.55
39267;BME280;24967;51.154;13.812;2023-03-13T05:03:44;98471.06;;;9.28;74.48
39267;BME280;24967;51.154;13.812;2023-03-13T05:06:11;98473.53;;;9.54;73.83
39267;BME280;24967;51.154;13.812;2023-03-13T05:08:38;98469.72;;;9.48;73.71
39267;BME280;24967;51.154;13.812;2023-03-13T05:11:04;98467.53;;;9.52;74.06
39267;BME280;24967;51.154;13.812;2023-03-13T05:13:31;98449.13;;;9.58;73.89
39267;BME280;24967;51.154;13.812;2023-03-13T05:15:58;98442.84;;;9.59;73.59
39267;BME280;24967;51.154;13.812;2023-03-13T05:18:25;98444.34;;;9.54;74.39
39267;BME280;24967;51.154;13.812;2023-03-13T05:20:52;98444.00;;;9.49;74.50
39267;BME280;24967;51.154;13.812;2023-03-13T05:23:18;98439.75;;;9.79;72.87
39267;BME280;24967;51.154;13.812;2023-03-13T05:25:45;98429.50;;;9.68;73.24
39267;BME280;24967;51.154;13.812;2023-03-13T05:28:11;98423.13;;;9.46;74.46
39267;BME280;24967;51.154;13.812;2023-03-13T05:30:38;98420.91;;;9.66;73.68
39267;BME280;24967;51.154;13.812;2023-03-13T05:33:04;98412.41;;;9.78;73.22
39267;BME280;24967;51.154;13.812;2023-03-13T05:35:32;98413.06;;;9.80;73.22
39267;BME280;24967;51.154;13.812;2023-03-13T05:37:58;98398.50;;;9.68;73.41
39267;BME280;24967;51.154;13.812;2023-03-13T05:40:25;98391.13;;;9.86;73.15
39267;BME280;24967;51.154;13.812;2023-03-13T05:42:51;98382.22;;;9.71;73.19
39267;BME280;24967;51.154;13.812;2023-03-13T05:45:18;98392.19;;;9.77;73.59
39267;BME280;24967;51.154;13.812;2023-03-13T05:47:44;98396.78;;;9.83;73.16
39267;BME280;24967;51.154;13.812;2023-03-13T05:50:11;98391.75;;;9.89;73.34
39267;BME280;24967;51.154;13.812;2023-03-13T05:52:39;98390.13;;;9.88;73.00
39267;BME280;24967;51.154;13.812;2023-03-13T05:55:06;98379.25;;;10.05;72.22
39267;BME280;24967;51.154;13.812;2023-03-13T05:57:33;98373.16;;;9.97;72.74
39267;BME280;24967;51.154;13.812;2023-03-13T05:59:59;98367.28;;;10.01;72.50
39267;BME280;24967;51.154;13.812;2023-03-13T06:02:26;98367.59;;;9.83;73.44
39267;BME280;24967;51.154;13.812;2023-03-13T06:04:53;98368.84;;;9.96;73.08
39267;BME280;24967;51.154;13.812;2023-03-13T06:07:19;98365.53;;;9.94;73.02
39267;BME280;24967;51.154;13.812;2023-03-13T06:09:47;98354.81;;;9.79;73.41
39267;BME280;24967;51.154;13.812;2023-03-13T06:12:13;98350.13;;;9.89;73.51
39267;BME280;24967;51.154;13.812;2023-03-13T06:14:40;98354.56;;;9.97;73.33
39267;BME280;24967;51.154;13.812;2023-03-13T06:17:06;98359.94;;;10.12;72.49
39267;BME280;24967;51.154;13.812;2023-03-13T06:19:33;98361.69;;;10.19;71.99
39267;BME280;24967;51.154;13.812;2023-03-13T06:22:01;98367.78;;;10.36;71.74
39267;BME280;24967;51.154;13.812;2023-03-13T06:24:28;98356.78;;;10.62;70.86
39267;BME280;24967;51.154;13.812;2023-03-13T06:26:56;98349.53;;;10.33;71.29
39267;BME280;24967;51.154;13.812;2023-03-13T06:29:23;98340.84;;;10.39;71.30
39267;BME280;24967;51.154;13.812;2023-03-13T06:31:51;98343.59;;;10.46;71.35
39267;BME280;24967;51.154;13.812;2023-03-13T06:34:17;98331.69;;;10.42;72.06
39267;BME280;24967;51.154;13.812;2023-03-13T06:36:45;98326.91;;;10.37;72.03
39267;BME280;24967;51.154;13.812;2023-03-13T06:39:12;98320.34;;;10.48;71.79
39267;BME280;24967;51.154;13.812;2023-03-13T06:41:39;98298.91;;;10.49;71.75
39267;BME280;24967;51.154;13.812;2023-03-13T06:44:07;98311.56;;;10.47;71.34
39267;BME280;24967;51.154;13.812;2023-03-13T06:46:35;98298.66;;;10.59;71.58
39267;BME280;24967;51.154;13.812;2023-03-13T06:49:02;98295.28;;;10.65;71.03
39267;BME280;24967;51.154;13.812;2023-03-13T06:51:30;98283.72;;;10.73;71.13
39267;BME280;24967;51.154;13.812;2023-03-13T06:53:57;98281.25;;;10.57;71.27
39267;BME280;24967;51.154;13.812;2023-03-13T06:56:24;98279.47;;;10.49;71.65
39267;BME280;24967;51.154;13.812;2023-03-13T06:58:51;98280.06;;;10.59;71.67
39267;BME280;24967;51.154;13.812;2023-03-13T07:01:19;98278.31;;;10.51;72.01
39267;BME280;24967;51.154;13.812;2023-03-13T07:03:47;98274.38;;;10.62;72.18
39267;BME280;24967;51.154;13.812;2023-03-13T07:06:14;98269.22;;;10.46;72.41
39267;BME280;24967;51.154;13.812;2023-03-13T07:08:41;98268.91;;;10.41;72.45
39267;BME280;24967;51.154;13.812;2023-03-13T07:11:10;98262.97;;;10.39;73.06
39267;BME280;24967;51.154;13.812;2023-03-13T07:13:37;98268.38;;;10.30;73.09
39267;BME280;24967;51.154;13.812;2023-03-13T07:16:05;98266.09;;;10.19;73.83
39267;BME280;24967;51.154;13.812;2023-03-13T07:18:34;98265.13;;;10.20;74.43
39267;BME280;24967;51.154;13.812;2023-03-13T07:21:03;98262.03;;;10.31;73.07
39267;BME280;24967;51.154;13.812;2023-03-13T07:23:30;98251.06;;;10.35;73.16
39267;BME280;24967;51.154;13.812;2023-03-13T07:25:59;98243.66;;;10.45;73.27
39267;BME280;24967;51.154;13.812;2023-03-13T07:28:29;98241.31;;;10.50;73.85
39267;BME280;24967;51.154;13.812;2023-03-13T07:31:03;98251.66;;;10.60;73.39
39267;BME280;24967;51.154;13.812;2023-03-13T07:33:30;98249.75;;;10.68;73.84
39267;BME280;24967;51.154;13.812;2023-03-13T07:35:58;98247.78;;;10.77;74.35
39267;BME280;24967;51.154;13.812;2023-03-13T07:38:27;98243.75;;;10.51;76.08
39267;BME280;24967;51.154;13.812;2023-03-13T07:40:55;98235.25;;;10.56;77.12
39267;BME280;24967;51.154;13.812;2023-03-13T07:43:23;98229.47;;;10.67;77.40
39267;BME280;24967;51.154;13.812;2023-03-13T07:45:54;98229.63;;;10.36;79.08
39267;BME280;24967;51.154;13.812;2023-03-13T07:48:21;98216.00;;;10.39;80.14
39267;BME280;24967;51.154;13.812;2023-03-13T07:50:48;98222.31;;;10.38;81.88
39267;BME280;24967;51.154;13.812;2023-03-13T07:53:16;98215.53;;;10.13;82.79
39267;BME280;24967;51.154;13.812;2023-03-13T07:55:52;98205.63;;;10.29;83.31
39267;BME280;24967;51.154;13.812;2023-03-13T07:58:19;98200.47;;;10.28;83.62
39267;BME280;24967;51.154;13.812;2023-03-13T08:00:46;98204.47;;;10.09;85.18
39267;BME280;24967;51.154;13.812;2023-03-13T08:03:12;98198.78;;;10.12;86.10
39267;BME280;24967;51.154;13.812;2023-03-13T08:05:39;98189.34;;;10.09;87.02
39267;BME280;24967;51.154;13.812;2023-03-13T08:08:05;98209.66;;;10.02;88.67
39267;BME280;24967;51.154;13.812;2023-03-13T08:10:33;98214.41;;;10.07;89.57
39267;BME280;24967;51.154;13.812;2023-03-13T08:13:00;98235.91;;;10.20;88.90
39267;BME280;24967;51.154;13.812;2023-03-13T08:15:26;98214.47;;;10.22;89.10
39267;BME280;24967;51.154;13.812;2023-03-13T08:17:53;98231.28;;;10.37;88.38
39267;BME280;24967;51.154;13.812;2023-03-13T08:20:29;98228.72;;;10.59;87.61
39267;BME280;24967;51.154;13.812;2023-03-13T08:23:17;98211.03;;;10.36;88.90
39267;BME280;24967;51.154;13.812;2023-03-13T08:25:44;98227.28;;;10.56;88.28
39267;BME280;24967;51.154;13.812;2023-03-13T08:28:11;98232.00;;;10.31;90.11
39267;BME280;24967;51.154;13.812;2023-03-13T08:30:37;98237.25;;;10.54;89.78
39267;BME280;24967;51.154;13.812;2023-03-13T08:33:10;98234.03;;;10.59;89.05
39267;BME280;24967;51.154;13.812;2023-03-13T08:35:36;98231.31;;;10.67;89.27
39267;BME280;24967;51.154;13.812;2023-03-13T08:38:03;98230.66;;;10.50;89.74
39267;BME280;24967;51.154;13.812;2023-03-13T08:40:31;98230.03;;;10.48;90.38
39267;BME280;24967;51.154;13.812;2023-03-13T08:42:58;98227.53;;;10.76;88.87
39267;BME280;24967;51.154;13.812;2023-03-13T08:45:25;98229.47;;;10.52;89.46
39267;BME280;24967;51.154;13.812;2023-03-13T08:47:52;98217.94;;;10.22;91.56
39267;BME280;24967;51.154;13.812;2023-03-13T08:50:18;98221.84;;;10.35;91.77
39267;BME280;24967;51.154;13.812;2023-03-13T08:52:45;98211.09;;;10.28;92.73
39267;BME280;24967;51.154;13.812;2023-03-13T08:55:11;98208.94;;;10.61;91.65
39267;BME280;24967;51.154;13.812;2023-03-13T08:57:38;98211.06;;;10.51;92.16
39267;BME280;24967;51.154;13.812;2023-03-13T09:00:11;98206.72;;;10.65;91.73
39267;BME280;24967;51.154;13.812;2023-03-13T09:02:39;98201.31;;;10.43;91.67
39267;BME280;24967;51.154;13.812;2023-03-13T09:05:06;98196.59;;;10.53;91.38
39267;BME280;24967;51.154;13.812;2023-03-13T09:07:33;98193.81;;;10.32;92.50
39267;BME280;24967;51.154;13.812;2023-03-13T09:09:59;98200.47;;;10.28;93.25
39267;BME280;24967;51.154;13.812;2023-03-13T09:12:26;98199.31;;;10.30;91.84
39267;BME280;24967;51.154;13.812;2023-03-13T09:14:53;98200.69;;;10.41;92.09
39267;BME280;24967;51.154;13.812;2023-03-13T09:17:20;98205.00;;;10.57;91.33
39267;BME280;24967;51.154;13.812;2023-03-13T09:19:47;98200.97;;;10.61;89.61
39267;BME280;24967;51.154;13.812;2023-03-13T09:22:13;98192.38;;;10.59;90.05
39267;BME280;24967;51.154;13.812;2023-03-13T09:24:40;98195.75;;;10.68;90.15
39267;BME280;24967;51.154;13.812;2023-03-13T09:27:07;98195.66;;;10.61;90.80
39267;BME280;24967;51.154;13.812;2023-03-13T09:29:33;98195.56;;;10.54;92.58
39267;BME280;24967;51.154;13.812;2023-03-13T09:32:08;98190.97;;;10.48;93.00
39267;BME280;24967;51.154;13.812;2023-03-13T09:34:36;98198.13;;;10.63;93.09
39267;BME280;24967;51.154;13.812;2023-03-13T09:37:02;98205.47;;;10.61;93.68
39267;BME280;24967;51.154;13.812;2023-03-13T09:39:29;98207.84;;;10.70;93.67
39267;BME280;24967;51.154;13.812;2023-03-13T09:42:03;98204.06;;;10.80;93.69
39267;BME280;24967;51.154;13.812;2023-03-13T09:44:37;98201.53;;;10.71;94.43
39267;BME280;24967;51.154;13.812;2023-03-13T09:47:09;98198.03;;;10.41;97.62
39267;BME280;24967;51.154;13.812;2023-03-13T09:49:41;98176.22;;;10.46;97.73
39267;BME280;24967;51.154;13.812;2023-03-13T09:52:15;98183.09;;;10.55;97.60
39267;BME280;24967;51.154;13.812;2023-03-13T09:54:46;98171.56;;;10.77;96.57
39267;BME280;24967;51.154;13.812;2023-03-13T09:57:20;98177.34;;;10.66;97.02
39267;BME280;24967;51.154;13.812;2023-03-13T09:59:54;98156.22;;;10.80;97.29
39267;BME280;24967;51.154;13.812;2023-03-13T10:02:28;98159.09;;;10.78;97.31
39267;BME280;24967;51.154;13.812;2023-03-13T10:05:02;98159.59;;;10.88;97.72
39267;BME280;24967;51.154;13.812;2023-03-13T10:07:30;98155.41;;;10.79;100.00
39267;BME280;24967;51.154;13.812;2023-03-13T10:09:57;98162.38;;;11.16;98.42
39267;BME280;24967;51.154;13.812;2023-03-13T10:12:27;98160.75;;;11.15;99.16
39267;BME280;24967;51.154;13.812;2023-03-13T10:15:06;98161.03;;;11.42;98.27
39267;BME280;24967;51.154;13.812;2023-03-13T10:17:41;98154.19;;;11.33;98.13
39267;BME280;24967;51.154;13.812;2023-03-13T10:20:17;98159.56;;;11.61;98.59
39267;BME280;24967;51.154;13.812;2023-03-13T10:22:49;98163.38;;;11.52;97.90
39267;BME280;24967;51.154;13.812;2023-03-13T10:25:27;98160.25;;;11.69;96.19
39267;BME280;24967;51.154;13.812;2023-03-13T10:27:55;98145.50;;;11.67;96.63
39267;BME280;24967;51.154;13.812;2023-03-13T10:30:24;98149.81;;;11.68;97.81
39267;BME280;24967;51.154;13.812;2023-03-13T10:32:53;98146.13;;;11.69;97.73
39267;BME280;24967;51.154;13.812;2023-03-13T10:35:30;98141.19;;;11.87;95.54
39267;BME280;24967;51.154;13.812;2023-03-13T10:38:02;98158.50;;;11.98;95.53
39267;BME280;24967;51.154;13.812;2023-03-13T10:40:29;98147.28;;;12.09;92.92
39267;BME280;24967;51.154;13.812;2023-03-13T10:43:01;98148.47;;;12.00;93.39
39267;BME280;24967;51.154;13.812;2023-03-13T10:45:31;98151.84;;;12.15;92.91
39267;BME280;24967;51.154;13.812;2023-03-13T10:48:02;98160.38;;;12.32;92.15
39267;BME280;24967;51.154;13.812;2023-03-13T10:50:33;98148.03;;;12.59;90.57
39267;BME280;24967;51.154;13.812;2023-03-13T10:53:18;98149.78;;;12.87;89.14
39267;BME280;24967;51.154;13.812;2023-03-13T10:55:45;98140.56;;;12.90;88.54
39267;BME280;24967;51.154;13.812;2023-03-13T10:58:17;98162.19;;;13.08;88.21
39267;BME280;24967;51.154;13.812;2023-03-13T11:00:45;98157.41;;;12.90;87.85
39267;BME280;24967;51.154;13.812;2023-03-13T11:03:14;98152.84;;;12.77;88.45
39267;BME280;24967;51.154;13.812;2023-03-13T11:05:45;98165.91;;;13.14;87.61
39267;BME280;24967;51.154;13.812;2023-03-13T11:08:21;98157.66;;;13.09;87.25
39267;BME280;24967;51.154;13.812;2023-03-13T11:10:54;98168.47;;;13.42;85.56
39267;BME280;24967;51.154;13.812;2023-03-13T11:13:34;98157.38;;;13.38;84.93
39267;BME280;24967;51.154;13.812;2023-03-13T11:16:17;98150.38;;;13.31;85.34
39267;BME280;24967;51.154;13.812;2023-03-13T11:18:53;98156.09;;;13.27;84.85
39267;BME280;24967;51.154;13.812;2023-03-13T11:21:33;98157.78;;;13.28;85.11
39267;BME280;24967;51.154;13.812;2023-03-13T11:24:06;98162.72;;;12.90;85.25
39267;BME280;24967;51.154;13.812;2023-03-13T11:26:38;98155.53;;;12.84;86.17
39267;BME280;24967;51.154;13.812;2023-03-13T11:29:16;98152.34;;;12.67;86.14
39267;BME280;24967;51.154;13.812;2023-03-13T11:31:54;98140.50;;;12.76;87.86
39267;BME280;24967;51.154;13.812;2023-03-13T11:34:26;98139.69;;;12.76;86.38
39267;BME280;24967;51.154;13.812;2023-03-13T11:37:00;98132.31;;;12.78;87.67
39267;BME280;24967;51.154;13.812;2023-03-13T11:39:46;98132.56;;;12.83;86.94
39267;BME280;24967;51.154;13.812;2023-03-13T11:42:34;98121.09;;;12.96;84.97
39267;BME280;24967;51.154;13.812;2023-03-13T11:45:07;98128.63;;;12.86;84.38
39267;BME280;24967;51.154;13.812;2023-03-13T11:47:48;98117.00;;;12.93;84.90
39267;BME280;24967;51.154;13.812;2023-03-13T11:50:27;98116.19;;;13.06;83.39
39267;BME280;24967;51.154;13.812;2023-03-13T11:53:18;98115.34;;;12.92;83.63
39267;BME280;24967;51.154;13.812;2023-03-13T11:55:55;98098.94;;;12.95;83.56
39267;BME280;24967;51.154;13.812;2023-03-13T11:58:33;98097.69;;;12.91;83.19
39267;BME280;24967;51.154;13.812;2023-03-13T12:01:05;98104.31;;;13.09;82.85
39267;BME280;24967;51.154;13.812;2023-03-13T12:03:36;98105.94;;;13.03;82.16
39267;BME280;24967;51.154;13.812;2023-03-13T12:06:13;98094.47;;;13.09;82.04
39267;BME280;24967;51.154;13.812;2023-03-13T12:08:46;98098.16;;;13.15;82.46
39267;BME280;24967;51.154;13.812;2023-03-13T12:11:19;98104.94;;;13.17;81.68
39267;BME280;24967;51.154;13.812;2023-03-13T12:13:50;98086.72;;;13.34;81.29
39267;BME280;24967;51.154;13.812;2023-03-13T12:16:27;98087.53;;;13.28;81.03
39267;BME280;24967;51.154;13.812;2023-03-13T12:18:58;98082.16;;;13.21;80.75
39267;BME280;24967;51.154;13.812;2023-03-13T12:21:28;98072.94;;;13.24;81.08
39267;BME280;24967;51.154;13.812;2023-03-13T12:24:03;98069.88;;;13.34;81.21
39267;BME280;24967;51.154;13.812;2023-03-13T12:26:38;98068.47;;;13.44;81.19
39267;BME280;24967;51.154;13.812;2023-03-13T12:29:14;98058.00;;;13.69;81.03
39267;BME280;24967;51.154;13.812;2023-03-13T12:31:47;98051.41;;;13.79;79.29
39267;BME280;24967;51.154;13.812;2023-03-13T12:34:21;98041.75;;;13.84;78.63
39267;BME280;24967;51.154;13.812;2023-03-13T12:36:56;98038.88;;;13.86;79.14
39267;BME280;24967;51.154;13.812;2023-03-13T12:39:29;98034.94;;;13.88;79.13
39267;BME280;24967;51.154;13.812;2023-03-13T12:42:09;98034.69;;;14.16;78.17
39267;BME280;24967;51.154;13.812;2023-03-13T12:44:40;98017.66;;;14.11;77.25
39267;BME280;24967;51.154;13.812;2023-03-13T12:47:09;98011.28;;;14.12;78.20
39267;BME280;24967;51.154;13.812;2023-03-13T12:49:58;98026.69;;;14.10;77.02
39267;BME280;24967;51.154;13.812;2023-03-13T12:52:46;98005.69;;;14.20;76.90
39267;BME280;24967;51.154;13.812;2023-03-13T12:55:44;98015.91;;;14.36;76.95
39267;BME280;24967;51.154;13.812;2023-03-13T12:58:28;98011.25;;;14.18;75.94
39267;BME280;24967;51.154;13.812;2023-03-13T13:00:56;98028.25;;;14.31;75.23
39267;BME280;24967;51.154;13.812;2023-03-13T13:03:32;98017.59;;;14.24;74.89
39267;BME280;24967;51.154;13.812;2023-03-13T13:06:05;98030.59;;;14.14;75.59